sensor_id;sensor_type;location;lat;lon;timestamp;P1;durP1;ratioP1;P2;durP2;ratioP2
71298;SDS011;59083;47.974;21.722;2023-03-01T06:23:31;14.52;;;6.32;;
71298;SDS011;59083;47.974;21.722;2023-03-01T06:26:33;14.77;;;6.83;;
71298;SDS011;59083;47.974;21.722;2023-03-01T06:29:34;15.97;;;7.00;;
71298;SDS011;59083;47.974;21.722;2023-03-01T06:32:36;15.85;;;7.15;;
71298;SDS011;59083;47.974;21.722;2023-03-01T06:35:37;13.32;;;6.05;;
71298;SDS011;59083;47.974;21.722;2023-03-01T06:38:39;14.07;;;6.57;;
71298;SDS011;59083;47.974;21.722;2023-03-01T06:41:41;17.80;;;6.47;;
71298;SDS011;59083;47.974;21.722;2023-03-01T06:44:43;13.93;;;6.53;;
71298;SDS011;59083;47.974;21.722;2023-03-01T06:47:44;16.55;;;6.78;;
71298;SDS011;59083;47.974;21.722;2023-03-01T06:50:46;14.95;;;6.85;;
71298;SDS011;59083;47.974;21.722;2023-03-01T06:53:47;17.48;;;6.37;;
71298;SDS011;59083;47.974;21.722;2023-03-01T06:56:49;15.80;;;6.10;;
71298;SDS011;59083;47.974;21.722;2023-03-01T06:59:50;12.77;;;5.90;;
71298;SDS011;59083;47.974;21.722;2023-03-01T07:02:52;13.90;;;6.07;;
71298;SDS011;59083;47.974;21.722;2023-03-01T07:05:53;13.62;;;5.72;;
71298;SDS011;59083;47.974;21.722;2023-03-01T07:08:55;13.65;;;6.28;;
71298;SDS011;59083;47.974;21.722;2023-03-01T07:11:56;12.40;;;5.47;;
71298;SDS011;59083;47.974;21.722;2023-03-01T07:14:58;13.20;;;6.13;;
71298;SDS011;59083;47.974;21.722;2023-03-01T07:17:59;14.93;;;6.10;;
71298;SDS011;59083;47.974;21.722;2023-03-01T07:21:04;14.27;;;6.10;;
71298;SDS011;59083;47.974;21.722;2023-03-01T07:24:07;19.05;;;6.37;;
71298;SDS011;59083;47.974;21.722;2023-03-01T07:27:09;14.87;;;5.27;;
71298;SDS011;59083;47.974;21.722;2023-03-01T07:30:10;16.90;;;7.43;;
71298;SDS011;59083;47.974;21.722;2023-03-01T07:33:12;15.13;;;6.70;;
71298;SDS011;59083;47.974;21.722;2023-03-01T07:36:13;16.48;;;6.47;;
71298;SDS011;59083;47.974;21.722;2023-03-01T07:39:14;13.38;;;6.15;;
71298;SDS011;59083;47.974;21.722;2023-03-01T07:42:15;14.00;;;6.03;;
71298;SDS011;59083;47.974;21.722;2023-03-01T07:45:17;14.60;;;5.70;;
71298;SDS011;59083;47.974;21.722;2023-03-01T07:48:18;12.98;;;5.45;;
71298;SDS011;59083;47.974;21.722;2023-03-01T07:51:19;13.80;;;5.30;;
71298;SDS011;59083;47.974;21.722;2023-03-01T07:54:20;12.57;;;6.10;;
71298;SDS011;59083;47.974;21.722;2023-03-01T07:57:22;12.17;;;5.87;;
71298;SDS011;59083;47.974;21.722;2023-03-01T08:00:23;11.13;;;5.63;;
71298;SDS011;59083;47.974;21.722;2023-03-01T08:03:24;12.43;;;5.32;;
71298;SDS011;59083;47.974;21.722;2023-03-01T08:06:25;12.05;;;5.75;;
71298;SDS011;59083;47.974;21.722;2023-03-01T08:09:27;14.02;;;5.68;;
71298;SDS011;59083;47.974;21.722;2023-03-01T08:12:28;12.27;;;5.70;;
71298;SDS011;59083;47.974;21.722;2023-03-01T08:15:29;11.70;;;5.93;;
71298;SDS011;59083;47.974;21.722;2023-03-01T08:18:30;12.93;;;5.90;;
71298;SDS011;59083;47.974;21.722;2023-03-01T08:21:32;13.18;;;5.97;;
71298;SDS011;59083;47.974;21.722;2023-03-01T08:24:35;14.55;;;6.65;;
71298;SDS011;59083;47.974;21.722;2023-03-01T08:27:36;12.93;;;5.60;;
71298;SDS011;59083;47.974;21.722;2023-03-01T08:30:37;12.40;;;5.50;;
71298;SDS011;59083;47.974;21.722;2023-03-01T08:33:39;13.52;;;5.75;;
71298;SDS011;59083;47.974;21.722;2023-03-01T08:36:40;13.77;;;5.97;;
71298;SDS011;59083;47.974;21.722;2023-03-01T08:39:44;14.18;;;6.03;;
71298;SDS011;59083;47.974;21.722;2023-03-01T08:42:45;12.20;;;5.60;;
71298;SDS011;59083;47.974;21.722;2023-03-01T08:45:48;11.73;;;5.50;;
71298;SDS011;59083;47.974;21.722;2023-03-01T08:48:49;12.45;;;6.20;;
71298;SDS011;59083;47.974;21.722;2023-03-01T08:51:50;12.55;;;5.72;;
71298;SDS011;59083;47.974;21.722;2023-03-01T08:54:51;15.35;;;5.70;;
71298;SDS011;59083;47.974;21.722;2023-03-01T08:57:53;13.57;;;6.30;;
71298;SDS011;59083;47.974;21.722;2023-03-01T09:00:54;13.93;;;6.80;;
71298;SDS011;59083;47.974;21.722;2023-03-01T09:03:57;12.82;;;5.90;;
71298;SDS011;59083;47.974;21.722;2023-03-01T09:06:58;12.32;;;5.95;;
71298;SDS011;59083;47.974;21.722;2023-03-01T09:10:00;11.70;;;6.20;;
71298;SDS011;59083;47.974;21.722;2023-03-01T09:13:01;12.67;;;6.20;;
71298;SDS011;59083;47.974;21.722;2023-03-01T09:16:03;11.53;;;5.27;;
71298;SDS011;59083;47.974;21.722;2023-03-01T09:19:05;12.13;;;5.95;;
71298;SDS011;59083;47.974;21.722;2023-03-01T09:22:07;12.18;;;6.00;;
71298;SDS011;59083;47.974;21.722;2023-03-01T09:25:08;14.07;;;6.10;;
71298;SDS011;59083;47.974;21.722;2023-03-01T09:28:10;11.20;;;5.87;;
71298;SDS011;59083;47.974;21.722;2023-03-01T09:31:12;13.20;;;5.90;;
71298;SDS011;59083;47.974;21.722;2023-03-01T09:34:14;13.43;;;6.53;;
71298;SDS011;59083;47.974;21.722;2023-03-01T09:37:19;12.18;;;6.15;;
71298;SDS011;59083;47.974;21.722;2023-03-01T09:40:21;12.80;;;6.32;;
71298;SDS011;59083;47.974;21.722;2023-03-01T09:46:44;13.87;;;6.80;;
71298;SDS011;59083;47.974;21.722;2023-03-01T09:49:51;13.40;;;6.15;;
71298;SDS011;59083;47.974;21.722;2023-03-01T09:53:09;16.48;;;7.53;;
71298;SDS011;59083;47.974;21.722;2023-03-01T10:09:16;18.73;;;8.30;;
71298;SDS011;59083;47.974;21.722;2023-03-01T10:12:20;25.33;;;9.68;;
71298;SDS011;59083;47.974;21.722;2023-03-01T10:15:33;15.13;;;6.87;;
71298;SDS011;59083;47.974;21.722;2023-03-01T10:18:39;17.67;;;7.30;;
71298;SDS011;59083;47.974;21.722;2023-03-01T10:21:43;17.17;;;6.60;;
71298;SDS011;59083;47.974;21.722;2023-03-01T10:24:48;17.12;;;6.05;;
71298;SDS011;59083;47.974;21.722;2023-03-01T10:27:54;16.42;;;5.78;;
71298;SDS011;59083;47.974;21.722;2023-03-01T10:31:01;12.33;;;5.97;;
71298;SDS011;59083;47.974;21.722;2023-03-01T10:34:02;11.80;;;5.37;;
71298;SDS011;59083;47.974;21.722;2023-03-01T10:40:22;11.15;;;5.32;;
71298;SDS011;59083;47.974;21.722;2023-03-01T10:43:24;11.15;;;5.28;;
71298;SDS011;59083;47.974;21.722;2023-03-01T10:46:31;12.97;;;5.10;;
71298;SDS011;59083;47.974;21.722;2023-03-01T10:49:34;11.83;;;5.33;;
71298;SDS011;59083;47.974;21.722;2023-03-01T10:52:36;11.55;;;5.72;;
71298;SDS011;59083;47.974;21.722;2023-03-01T10:55:41;13.27;;;5.57;;
71298;SDS011;59083;47.974;21.722;2023-03-01T11:02:30;11.53;;;5.53;;
71298;SDS011;59083;47.974;21.722;2023-03-01T11:05:34;14.13;;;5.60;;
71298;SDS011;59083;47.974;21.722;2023-03-01T11:08:37;11.15;;;5.10;;
71298;SDS011;59083;47.974;21.722;2023-03-01T11:11:40;12.57;;;5.80;;
71298;SDS011;59083;47.974;21.722;2023-03-01T11:14:46;14.48;;;6.00;;
71298;SDS011;59083;47.974;21.722;2023-03-01T11:17:50;11.73;;;5.23;;
71298;SDS011;59083;47.974;21.722;2023-03-01T11:20:52;12.70;;;6.07;;
71298;SDS011;59083;47.974;21.722;2023-03-01T11:23:55;13.43;;;5.20;;
71298;SDS011;59083;47.974;21.722;2023-03-01T11:27:03;13.32;;;5.97;;
71298;SDS011;59083;47.974;21.722;2023-03-01T11:39:50;12.23;;;5.60;;
71298;SDS011;59083;47.974;21.722;2023-03-01T11:46:32;12.02;;;5.45;;
71298;SDS011;59083;47.974;21.722;2023-03-01T11:56:38;11.32;;;5.57;;
71298;SDS011;59083;47.974;21.722;2023-03-01T12:03:45;11.75;;;5.50;;
71298;SDS011;59083;47.974;21.722;2023-03-01T12:11:01;12.20;;;4.90;;
71298;SDS011;59083;47.974;21.722;2023-03-01T12:21:13;13.18;;;5.50;;
71298;SDS011;59083;47.974;21.722;2023-03-01T12:50:20;11.05;;;5.32;;
71298;SDS011;59083;47.974;21.722;2023-03-01T12:53:25;12.10;;;5.80;;
71298;SDS011;59083;47.974;21.722;2023-03-01T12:56:27;11.47;;;4.90;;
71298;SDS011;59083;47.974;21.722;2023-03-01T12:59:42;11.00;;;5.17;;
71298;SDS011;59083;47.974;21.722;2023-03-01T13:03:09;11.35;;;5.57;;
71298;SDS011;59083;47.974;21.722;2023-03-01T13:06:25;12.65;;;5.43;;
71298;SDS011;59083;47.974;21.722;2023-03-01T13:15:53;25.67;;;10.53;;
71298;SDS011;59083;47.974;21.722;2023-03-01T13:22:31;10.90;;;4.90;;
71298;SDS011;59083;47.974;21.722;2023-03-01T13:25:34;11.02;;;5.20;;
71298;SDS011;59083;47.974;21.722;2023-03-01T13:35:01;8.88;;;4.78;;
71298;SDS011;59083;47.974;21.722;2023-03-01T13:38:36;9.48;;;4.07;;
71298;SDS011;59083;47.974;21.722;2023-03-01T13:44:39;9.10;;;4.20;;
71298;SDS011;59083;47.974;21.722;2023-03-01T13:47:44;9.20;;;3.93;;
71298;SDS011;59083;47.974;21.722;2023-03-01T13:50:54;10.52;;;3.97;;
71298;SDS011;59083;47.974;21.722;2023-03-01T13:53:59;8.05;;;4.18;;
71298;SDS011;59083;47.974;21.722;2023-03-01T13:57:01;9.65;;;3.80;;
71298;SDS011;59083;47.974;21.722;2023-03-01T14:00:03;9.13;;;3.70;;
71298;SDS011;59083;47.974;21.722;2023-03-01T14:03:10;10.17;;;4.90;;
71298;SDS011;59083;47.974;21.722;2023-03-01T14:06:15;11.25;;;5.00;;
71298;SDS011;59083;47.974;21.722;2023-03-01T14:09:20;11.45;;;4.90;;
71298;SDS011;59083;47.974;21.722;2023-03-01T14:12:25;12.75;;;4.72;;
71298;SDS011;59083;47.974;21.722;2023-03-01T14:15:37;10.57;;;4.53;;
71298;SDS011;59083;47.974;21.722;2023-03-01T14:22:27;9.20;;;4.07;;
71298;SDS011;59083;47.974;21.722;2023-03-01T14:25:34;9.90;;;4.57;;
71298;SDS011;59083;47.974;21.722;2023-03-01T14:28:37;12.23;;;4.95;;
71298;SDS011;59083;47.974;21.722;2023-03-01T14:31:39;10.30;;;4.63;;
71298;SDS011;59083;47.974;21.722;2023-03-01T14:34:49;10.67;;;4.70;;
71298;SDS011;59083;47.974;21.722;2023-03-01T14:37:52;10.63;;;5.12;;
71298;SDS011;59083;47.974;21.722;2023-03-01T14:40:54;10.18;;;4.50;;
71298;SDS011;59083;47.974;21.722;2023-03-01T14:44:06;11.18;;;4.93;;
71298;SDS011;59083;47.974;21.722;2023-03-01T14:47:23;13.37;;;4.63;;
71298;SDS011;59083;47.974;21.722;2023-03-01T14:50:31;10.30;;;4.83;;
71298;SDS011;59083;47.974;21.722;2023-03-01T14:53:41;10.48;;;5.05;;
71298;SDS011;59083;47.974;21.722;2023-03-01T14:56:44;11.27;;;4.80;;
71298;SDS011;59083;47.974;21.722;2023-03-01T14:59:46;11.50;;;5.32;;
71298;SDS011;59083;47.974;21.722;2023-03-01T15:02:50;10.63;;;5.13;;
71298;SDS011;59083;47.974;21.722;2023-03-01T15:05:53;10.90;;;5.27;;
71298;SDS011;59083;47.974;21.722;2023-03-01T15:08:54;11.57;;;4.80;;
71298;SDS011;59083;47.974;21.722;2023-03-01T15:11:57;10.95;;;5.20;;
71298;SDS011;59083;47.974;21.722;2023-03-01T15:14:58;11.07;;;5.03;;
71298;SDS011;59083;47.974;21.722;2023-03-01T15:18:04;13.87;;;5.33;;
71298;SDS011;59083;47.974;21.722;2023-03-01T15:21:18;10.77;;;4.63;;
71298;SDS011;59083;47.974;21.722;2023-03-01T15:24:24;10.55;;;5.05;;
71298;SDS011;59083;47.974;21.722;2023-03-01T15:27:28;12.10;;;5.03;;
71298;SDS011;59083;47.974;21.722;2023-03-01T15:30:33;11.30;;;5.60;;
71298;SDS011;59083;47.974;21.722;2023-03-01T15:33:38;14.20;;;5.40;;
71298;SDS011;59083;47.974;21.722;2023-03-01T15:36:43;15.37;;;6.17;;
71298;SDS011;59083;47.974;21.722;2023-03-01T15:39:53;19.92;;;8.95;;
71298;SDS011;59083;47.974;21.722;2023-03-01T15:42:55;11.73;;;5.37;;
71298;SDS011;59083;47.974;21.722;2023-03-01T15:45:57;14.40;;;5.10;;
71298;SDS011;59083;47.974;21.722;2023-03-01T15:49:00;12.05;;;5.50;;
71298;SDS011;59083;47.974;21.722;2023-03-01T15:52:03;14.93;;;5.47;;
71298;SDS011;59083;47.974;21.722;2023-03-01T15:55:20;12.90;;;5.37;;
71298;SDS011;59083;47.974;21.722;2023-03-01T15:58:24;13.38;;;6.10;;
71298;SDS011;59083;47.974;21.722;2023-03-01T16:01:25;13.80;;;5.87;;
71298;SDS011;59083;47.974;21.722;2023-03-01T16:04:27;13.67;;;5.77;;
71298;SDS011;59083;47.974;21.722;2023-03-01T16:07:28;13.27;;;5.87;;
71298;SDS011;59083;47.974;21.722;2023-03-01T16:10:30;25.83;;;6.65;;
71298;SDS011;59083;47.974;21.722;2023-03-01T16:13:32;19.05;;;8.15;;
71298;SDS011;59083;47.974;21.722;2023-03-01T16:16:33;19.67;;;8.90;;
71298;SDS011;59083;47.974;21.722;2023-03-01T16:19:36;14.53;;;6.87;;
71298;SDS011;59083;47.974;21.722;2023-03-01T16:22:38;18.83;;;7.73;;
71298;SDS011;59083;47.974;21.722;2023-03-01T16:25:44;14.65;;;7.45;;
71298;SDS011;59083;47.974;21.722;2023-03-01T16:28:46;15.05;;;6.93;;
71298;SDS011;59083;47.974;21.722;2023-03-01T16:31:47;14.85;;;7.10;;
71298;SDS011;59083;47.974;21.722;2023-03-01T16:34:48;15.73;;;6.95;;
71298;SDS011;59083;47.974;21.722;2023-03-01T16:37:50;14.03;;;6.43;;
71298;SDS011;59083;47.974;21.722;2023-03-01T16:40:53;25.58;;;12.37;;
71298;SDS011;59083;47.974;21.722;2023-03-01T16:43:54;17.58;;;7.87;;
71298;SDS011;59083;47.974;21.722;2023-03-01T16:46:56;17.23;;;7.45;;
71298;SDS011;59083;47.974;21.722;2023-03-01T16:49:57;16.47;;;7.70;;
71298;SDS011;59083;47.974;21.722;2023-03-01T16:52:58;15.60;;;7.17;;
71298;SDS011;59083;47.974;21.722;2023-03-01T16:55:59;17.77;;;8.35;;
71298;SDS011;59083;47.974;21.722;2023-03-01T16:59:00;18.25;;;8.07;;
71298;SDS011;59083;47.974;21.722;2023-03-01T17:02:01;16.20;;;7.85;;
71298;SDS011;59083;47.974;21.722;2023-03-01T17:05:03;17.97;;;8.93;;
71298;SDS011;59083;47.974;21.722;2023-03-01T17:08:05;28.83;;;12.20;;
71298;SDS011;59083;47.974;21.722;2023-03-01T17:11:08;21.20;;;10.55;;
71298;SDS011;59083;47.974;21.722;2023-03-01T17:14:11;19.20;;;8.32;;
71298;SDS011;59083;47.974;21.722;2023-03-01T17:17:12;24.05;;;9.55;;
71298;SDS011;59083;47.974;21.722;2023-03-01T17:20:13;22.57;;;9.47;;
71298;SDS011;59083;47.974;21.722;2023-03-01T17:23:15;20.30;;;10.37;;
71298;SDS011;59083;47.974;21.722;2023-03-01T17:26:16;22.40;;;10.82;;
71298;SDS011;59083;47.974;21.722;2023-03-01T17:29:17;23.75;;;10.63;;
71298;SDS011;59083;47.974;21.722;2023-03-01T17:32:18;24.80;;;11.70;;
71298;SDS011;59083;47.974;21.722;2023-03-01T17:35:20;23.13;;;9.97;;
71298;SDS011;59083;47.974;21.722;2023-03-01T17:38:21;18.93;;;9.90;;
71298;SDS011;59083;47.974;21.722;2023-03-01T17:41:22;21.62;;;9.57;;
71298;SDS011;59083;47.974;21.722;2023-03-01T17:44:24;19.98;;;9.82;;
71298;SDS011;59083;47.974;21.722;2023-03-01T17:47:26;23.05;;;10.02;;
71298;SDS011;59083;47.974;21.722;2023-03-01T17:50:27;23.57;;;10.40;;
71298;SDS011;59083;47.974;21.722;2023-03-01T17:53:28;21.33;;;9.63;;
71298;SDS011;59083;47.974;21.722;2023-03-01T17:56:29;24.48;;;9.60;;
71298;SDS011;59083;47.974;21.722;2023-03-01T17:59:36;20.30;;;8.90;;
71298;SDS011;59083;47.974;21.722;2023-03-01T18:02:37;29.23;;;13.02;;
71298;SDS011;59083;47.974;21.722;2023-03-01T18:05:39;22.23;;;10.80;;
71298;SDS011;59083;47.974;21.722;2023-03-01T18:08:41;22.53;;;10.77;;
71298;SDS011;59083;47.974;21.722;2023-03-01T18:11:42;23.20;;;10.43;;
71298;SDS011;59083;47.974;21.722;2023-03-01T18:14:44;22.25;;;9.73;;
71298;SDS011;59083;47.974;21.722;2023-03-01T18:17:45;21.83;;;9.95;;
71298;SDS011;59083;47.974;21.722;2023-03-01T18:20:53;23.73;;;9.77;;
71298;SDS011;59083;47.974;21.722;2023-03-01T18:23:56;21.07;;;9.80;;
71298;SDS011;59083;47.974;21.722;2023-03-01T18:26:59;22.20;;;9.77;;
71298;SDS011;59083;47.974;21.722;2023-03-01T18:30:00;19.12;;;8.98;;
71298;SDS011;59083;47.974;21.722;2023-03-01T18:33:01;26.05;;;11.75;;
71298;SDS011;59083;47.974;21.722;2023-03-01T18:36:03;21.60;;;8.77;;
71298;SDS011;59083;47.974;21.722;2023-03-01T18:39:06;20.07;;;9.23;;
71298;SDS011;59083;47.974;21.722;2023-03-01T18:42:07;20.62;;;8.95;;
71298;SDS011;59083;47.974;21.722;2023-03-01T18:45:08;18.67;;;8.55;;
71298;SDS011;59083;47.974;21.722;2023-03-01T18:48:10;18.00;;;7.53;;
71298;SDS011;59083;47.974;21.722;2023-03-01T18:51:18;18.37;;;7.93;;
71298;SDS011;59083;47.974;21.722;2023-03-01T18:54:20;19.43;;;8.43;;
71298;SDS011;59083;47.974;21.722;2023-03-01T18:57:21;17.80;;;7.62;;
71298;SDS011;59083;47.974;21.722;2023-03-01T19:00:23;19.08;;;8.23;;
71298;SDS011;59083;47.974;21.722;2023-03-01T19:03:24;18.70;;;8.38;;
71298;SDS011;59083;47.974;21.722;2023-03-01T19:06:30;17.57;;;7.87;;
71298;SDS011;59083;47.974;21.722;2023-03-01T19:09:33;16.80;;;8.10;;
71298;SDS011;59083;47.974;21.722;2023-03-01T19:12:34;17.45;;;7.53;;
71298;SDS011;59083;47.974;21.722;2023-03-01T19:15:36;19.77;;;8.63;;
71298;SDS011;59083;47.974;21.722;2023-03-01T19:18:38;18.58;;;8.05;;
71298;SDS011;59083;47.974;21.722;2023-03-01T19:21:40;18.37;;;8.40;;
71298;SDS011;59083;47.974;21.722;2023-03-01T19:24:42;21.80;;;9.17;;
71298;SDS011;59083;47.974;21.722;2023-03-01T19:27:43;23.10;;;9.15;;
71298;SDS011;59083;47.974;21.722;2023-03-01T19:30:44;20.20;;;9.10;;
71298;SDS011;59083;47.974;21.722;2023-03-01T19:33:45;24.10;;;9.43;;
71298;SDS011;59083;47.974;21.722;2023-03-01T19:36:47;18.03;;;8.63;;
71298;SDS011;59083;47.974;21.722;2023-03-01T19:39:48;23.77;;;9.40;;
71298;SDS011;59083;47.974;21.722;2023-03-01T19:42:49;22.35;;;9.73;;
71298;SDS011;59083;47.974;21.722;2023-03-01T19:45:51;17.83;;;8.27;;
71298;SDS011;59083;47.974;21.722;2023-03-01T19:48:53;21.27;;;9.60;;
71298;SDS011;59083;47.974;21.722;2023-03-01T19:51:54;19.07;;;9.33;;
71298;SDS011;59083;47.974;21.722;2023-03-01T19:54:56;23.20;;;10.20;;
71298;SDS011;59083;47.974;21.722;2023-03-01T19:57:57;25.42;;;10.40;;
71298;SDS011;59083;47.974;21.722;2023-03-01T20:00:58;21.60;;;8.85;;
71298;SDS011;59083;47.974;21.722;2023-03-01T20:04:00;24.50;;;11.00;;
71298;SDS011;59083;47.974;21.722;2023-03-01T20:07:02;23.87;;;10.80;;
71298;SDS011;59083;47.974;21.722;2023-03-01T20:10:03;21.53;;;9.23;;
71298;SDS011;59083;47.974;21.722;2023-03-01T20:13:05;21.10;;;10.32;;
71298;SDS011;59083;47.974;21.722;2023-03-01T20:16:06;25.02;;;9.80;;
71298;SDS011;59083;47.974;21.722;2023-03-01T20:19:08;24.92;;;10.50;;
71298;SDS011;59083;47.974;21.722;2023-03-01T20:22:09;23.77;;;11.10;;
71298;SDS011;59083;47.974;21.722;2023-03-01T20:25:14;23.20;;;11.03;;
71298;SDS011;59083;47.974;21.722;2023-03-01T20:28:16;27.60;;;11.55;;
71298;SDS011;59083;47.974;21.722;2023-03-01T20:31:19;27.05;;;11.65;;
71298;SDS011;59083;47.974;21.722;2023-03-01T20:34:22;26.75;;;12.45;;
71298;SDS011;59083;47.974;21.722;2023-03-01T20:37:23;30.60;;;13.63;;
71298;SDS011;59083;47.974;21.722;2023-03-01T20:40:24;28.50;;;12.73;;
71298;SDS011;59083;47.974;21.722;2023-03-01T20:43:28;27.75;;;13.15;;
71298;SDS011;59083;47.974;21.722;2023-03-01T20:46:29;29.42;;;13.48;;
71298;SDS011;59083;47.974;21.722;2023-03-01T20:49:31;27.17;;;13.20;;
71298;SDS011;59083;47.974;21.722;2023-03-01T20:52:33;31.47;;;14.53;;
71298;SDS011;59083;47.974;21.722;2023-03-01T20:55:34;29.20;;;13.17;;
71298;SDS011;59083;47.974;21.722;2023-03-01T20:58:35;31.05;;;13.73;;
71298;SDS011;59083;47.974;21.722;2023-03-01T21:01:37;33.40;;;13.43;;
71298;SDS011;59083;47.974;21.722;2023-03-01T21:04:39;30.02;;;12.98;;
71298;SDS011;59083;47.974;21.722;2023-03-01T21:07:40;26.23;;;12.43;;
71298;SDS011;59083;47.974;21.722;2023-03-01T21:10:48;27.07;;;11.63;;
71298;SDS011;59083;47.974;21.722;2023-03-01T21:13:50;29.58;;;12.30;;
71298;SDS011;59083;47.974;21.722;2023-03-01T21:16:52;28.67;;;11.35;;
71298;SDS011;59083;47.974;21.722;2023-03-01T21:19:53;26.55;;;11.77;;
71298;SDS011;59083;47.974;21.722;2023-03-01T21:22:54;31.00;;;11.73;;
71298;SDS011;59083;47.974;21.722;2023-03-01T21:26:03;25.57;;;11.20;;
71298;SDS011;59083;47.974;21.722;2023-03-01T21:29:21;27.20;;;11.27;;
71298;SDS011;59083;47.974;21.722;2023-03-01T21:32:22;23.73;;;10.57;;
71298;SDS011;59083;47.974;21.722;2023-03-01T21:35:24;26.08;;;11.32;;
71298;SDS011;59083;47.974;21.722;2023-03-01T21:38:25;26.50;;;11.10;;
71298;SDS011;59083;47.974;21.722;2023-03-01T21:41:30;27.00;;;11.00;;
71298;SDS011;59083;47.974;21.722;2023-03-01T21:44:33;25.92;;;10.95;;
71298;SDS011;59083;47.974;21.722;2023-03-01T21:47:34;30.15;;;11.23;;
71298;SDS011;59083;47.974;21.722;2023-03-01T21:50:35;22.87;;;10.05;;
71298;SDS011;59083;47.974;21.722;2023-03-01T21:53:37;27.70;;;11.13;;
71298;SDS011;59083;47.974;21.722;2023-03-01T21:56:38;25.83;;;10.30;;
71298;SDS011;59083;47.974;21.722;2023-03-01T21:59:40;27.20;;;10.50;;
71298;SDS011;59083;47.974;21.722;2023-03-01T22:02:41;20.70;;;10.27;;
71298;SDS011;59083;47.974;21.722;2023-03-01T22:05:42;26.90;;;11.12;;
71298;SDS011;59083;47.974;21.722;2023-03-01T22:08:50;25.50;;;11.20;;
71298;SDS011;59083;47.974;21.722;2023-03-01T22:11:54;24.10;;;10.87;;
71298;SDS011;59083;47.974;21.722;2023-03-01T22:15:01;28.00;;;11.68;;
71298;SDS011;59083;47.974;21.722;2023-03-01T22:18:03;25.95;;;10.75;;
71298;SDS011;59083;47.974;21.722;2023-03-01T22:21:05;24.65;;;11.07;;
71298;SDS011;59083;47.974;21.722;2023-03-01T22:24:07;23.83;;;11.03;;
71298;SDS011;59083;47.974;21.722;2023-03-01T22:27:09;22.57;;;10.30;;
71298;SDS011;59083;47.974;21.722;2023-03-01T22:30:11;27.08;;;11.23;;
71298;SDS011;59083;47.974;21.722;2023-03-01T22:33:13;28.08;;;11.80;;
71298;SDS011;59083;47.974;21.722;2023-03-01T22:36:14;26.10;;;11.35;;
71298;SDS011;59083;47.974;21.722;2023-03-01T22:39:16;23.93;;;11.13;;
71298;SDS011;59083;47.974;21.722;2023-03-01T22:42:19;24.07;;;11.93;;
71298;SDS011;59083;47.974;21.722;2023-03-01T22:45:20;24.20;;;11.05;;
71298;SDS011;59083;47.974;21.722;2023-03-01T22:48:22;25.17;;;10.57;;
71298;SDS011;59083;47.974;21.722;2023-03-01T22:51:28;28.33;;;11.45;;
71298;SDS011;59083;47.974;21.722;2023-03-01T22:54:31;22.83;;;10.27;;
71298;SDS011;59083;47.974;21.722;2023-03-01T22:57:32;26.83;;;10.33;;
71298;SDS011;59083;47.974;21.722;2023-03-01T23:00:34;25.55;;;10.23;;
71298;SDS011;59083;47.974;21.722;2023-03-01T23:03:36;22.33;;;9.73;;
71298;SDS011;59083;47.974;21.722;2023-03-01T23:06:37;23.20;;;10.32;;
71298;SDS011;59083;47.974;21.722;2023-03-01T23:09:49;24.57;;;9.90;;
71298;SDS011;59083;47.974;21.722;2023-03-01T23:12:52;22.37;;;9.43;;
71298;SDS011;59083;47.974;21.722;2023-03-01T23:15:55;20.77;;;9.77;;
71298;SDS011;59083;47.974;21.722;2023-03-01T23:18:57;24.20;;;9.70;;
71298;SDS011;59083;47.974;21.722;2023-03-01T23:21:59;25.23;;;9.38;;
71298;SDS011;59083;47.974;21.722;2023-03-01T23:25:00;24.90;;;9.93;;
71298;SDS011;59083;47.974;21.722;2023-03-01T23:28:01;24.77;;;10.37;;
71298;SDS011;59083;47.974;21.722;2023-03-01T23:31:04;22.92;;;10.30;;
71298;SDS011;59083;47.974;21.722;2023-03-01T23:34:06;25.55;;;9.90;;
71298;SDS011;59083;47.974;21.722;2023-03-01T23:37:08;26.65;;;10.25;;
71298;SDS011;59083;47.974;21.722;2023-03-01T23:40:10;27.93;;;11.03;;
71298;SDS011;59083;47.974;21.722;2023-03-01T23:43:12;24.83;;;9.93;;
71298;SDS011;59083;47.974;21.722;2023-03-01T23:46:14;24.65;;;10.35;;
71298;SDS011;59083;47.974;21.722;2023-03-01T23:49:18;25.60;;;9.88;;
71298;SDS011;59083;47.974;21.722;2023-03-01T23:52:20;21.48;;;9.93;;
71298;SDS011;59083;47.974;21.722;2023-03-01T23:55:21;19.97;;;9.20;;
71298;SDS011;59083;47.974;21.722;2023-03-01T23:58:23;21.63;;;9.67;;
